Terminal Aerodrome Forecast
Issued by NWS

Home | Current Version | Previous Version | Graphics & Text | Print | Product List | Glossary On
Versions: 1 2 3 4 5 6 7 8 9 10 11 12 13 14 15 16 17 18 19 20 21 22 23 24 25 26 27 28 29 30 31 32 33
000
FTUS43 KLOT 281359 AAA
TAFORD
TAF AMD
KORD 281359Z 2814/2918 VRB04KT P6SM FEW250
     FM281600 19006KT P6SM FEW050 BKN250
     FM282000 15008KT P6SM SCT045 BKN100
     FM290000 14009KT 6SM -SHRA SCT030 OVC040
     FM290300 13010KT 3SM SHRA BR SCT008 OVC018 PROB30 2903/2907 2SM
      TSRA SCT008 OVC015CB
     FM290900 08009KT 5SM -SHRA BR SCT005 OVC008
     FM291400 09008KT P6SM SCT008 OVC015=

USA.gov is the U.S. government's official web portal to all federal, state and local government web resources and services.